sensor_id;sensor_type;location;lat;lon;timestamp;pressure;altitude;pressure_sealevel;temperature;humidity
45872;BME280;32333;55.844;-3.210;2022-12-07T00:06:00;100626.75;;;-0.50;100.00
45872;BME280;32333;55.844;-3.210;2022-12-07T00:08:32;100619.73;;;-0.62;100.00
45872;BME280;32333;55.844;-3.210;2022-12-07T00:11:04;100618.00;;;-1.42;100.00
45872;BME280;32333;55.844;-3.210;2022-12-07T00:16:50;100612.90;;;-1.20;100.00
45872;BME280;32333;55.844;-3.210;2022-12-07T00:49:21;100582.14;;;-1.66;100.00
45872;BME280;32333;55.844;-3.210;2022-12-07T00:51:52;100581.65;;;-1.36;100.00
45872;BME280;32333;55.844;-3.210;2022-12-07T00:55:17;100582.05;;;-0.63;100.00
45872;BME280;32333;55.844;-3.210;2022-12-07T00:58:53;100574.10;;;-1.60;100.00
45872;BME280;32333;55.844;-3.210;2022-12-07T01:15:04;100557.12;;;-0.62;100.00
45872;BME280;32333;55.844;-3.210;2022-12-07T01:17:34;100557.46;;;-0.51;100.00
45872;BME280;32333;55.844;-3.210;2022-12-07T01:20:11;100557.04;;;-0.64;100.00
45872;BME280;32333;55.844;-3.210;2022-12-07T01:24:41;100553.74;;;-0.72;100.00
45872;BME280;32333;55.844;-3.210;2022-12-07T01:27:13;100550.19;;;0.29;100.00
45872;BME280;32333;55.844;-3.210;2022-12-07T01:29:49;100542.51;;;-1.21;100.00
45872;BME280;32333;55.844;-3.210;2022-12-07T01:32:23;100543.41;;;0.02;100.00
45872;BME280;32333;55.844;-3.210;2022-12-07T01:34:59;100539.02;;;-0.80;100.00
45872;BME280;32333;55.844;-3.210;2022-12-07T02:01:54;100540.52;;;-2.18;100.00
45872;BME280;32333;55.844;-3.210;2022-12-07T02:07:36;100538.71;;;-0.87;100.00
45872;BME280;32333;55.844;-3.210;2022-12-07T02:14:41;100529.65;;;-0.69;100.00
45872;BME280;32333;55.844;-3.210;2022-12-07T02:17:25;100534.00;;;-2.35;100.00
45872;BME280;32333;55.844;-3.210;2022-12-07T02:20:35;100533.46;;;-1.76;100.00
45872;BME280;32333;55.844;-3.210;2022-12-07T05:48:27;100400.93;;;-2.13;100.00
45872;BME280;32333;55.844;-3.210;2022-12-07T05:50:55;100401.13;;;-2.01;100.00
45872;BME280;32333;55.844;-3.210;2022-12-07T05:53:24;100399.47;;;-2.18;100.00
45872;BME280;32333;55.844;-3.210;2022-12-07T05:55:53;100399.64;;;-1.28;100.00
45872;BME280;32333;55.844;-3.210;2022-12-07T05:58:21;100397.38;;;-1.97;100.00
45872;BME280;32333;55.844;-3.210;2022-12-07T06:00:50;100401.79;;;-1.58;100.00
45872;BME280;32333;55.844;-3.210;2022-12-07T06:03:43;100399.15;;;-1.09;100.00
45872;BME280;32333;55.844;-3.210;2022-12-07T06:06:13;100397.76;;;-1.40;100.00
45872;BME280;32333;55.844;-3.210;2022-12-07T06:08:44;100391.53;;;-2.12;100.00
45872;BME280;32333;55.844;-3.210;2022-12-07T06:11:16;100392.98;;;-0.61;100.00
45872;BME280;32333;55.844;-3.210;2022-12-07T06:14:39;100386.76;;;-1.82;100.00
45872;BME280;32333;55.844;-3.210;2022-12-07T06:17:12;100383.05;;;-2.32;100.00
45872;BME280;32333;55.844;-3.210;2022-12-07T06:19:41;100383.35;;;-2.00;100.00
45872;BME280;32333;55.844;-3.210;2022-12-07T06:22:13;100384.92;;;-1.72;100.00
45872;BME280;32333;55.844;-3.210;2022-12-07T06:24:46;100384.46;;;-1.84;100.00
45872;BME280;32333;55.844;-3.210;2022-12-07T06:27:16;100382.87;;;-1.77;100.00
45872;BME280;32333;55.844;-3.210;2022-12-07T06:29:45;100378.44;;;-1.99;100.00
45872;BME280;32333;55.844;-3.210;2022-12-07T06:32:14;100379.03;;;-1.26;100.00
45872;BME280;32333;55.844;-3.210;2022-12-07T06:34:46;100373.65;;;-0.96;100.00
45872;BME280;32333;55.844;-3.210;2022-12-07T06:37:17;100367.35;;;-0.54;100.00
45872;BME280;32333;55.844;-3.210;2022-12-07T06:40:20;100371.45;;;-1.41;100.00
45872;BME280;32333;55.844;-3.210;2022-12-07T06:44:37;100375.19;;;-1.39;100.00
45872;BME280;32333;55.844;-3.210;2022-12-07T06:47:07;100377.19;;;-0.85;100.00
45872;BME280;32333;55.844;-3.210;2022-12-07T06:49:36;100377.80;;;-1.31;100.00
45872;BME280;32333;55.844;-3.210;2022-12-07T06:52:04;100377.22;;;-1.00;100.00
45872;BME280;32333;55.844;-3.210;2022-12-07T06:58:27;100371.36;;;-0.58;100.00
45872;BME280;32333;55.844;-3.210;2022-12-07T07:00:56;100376.65;;;-0.74;100.00
45872;BME280;32333;55.844;-3.210;2022-12-07T07:03:25;100365.85;;;-0.49;100.00
45872;BME280;32333;55.844;-3.210;2022-12-07T07:05:54;100361.13;;;-0.26;100.00
45872;BME280;32333;55.844;-3.210;2022-12-07T07:08:49;100356.26;;;-1.17;100.00
45872;BME280;32333;55.844;-3.210;2022-12-07T07:11:24;100360.11;;;-0.05;100.00
45872;BME280;32333;55.844;-3.210;2022-12-07T07:14:37;100361.48;;;-0.03;100.00
45872;BME280;32333;55.844;-3.210;2022-12-07T07:17:06;100368.31;;;-0.73;100.00
45872;BME280;32333;55.844;-3.210;2022-12-07T07:19:39;100364.21;;;-0.35;100.00
45872;BME280;32333;55.844;-3.210;2022-12-07T07:22:08;100360.05;;;-0.51;100.00
45872;BME280;32333;55.844;-3.210;2022-12-07T07:32:48;100361.49;;;-0.31;100.00
45872;BME280;32333;55.844;-3.210;2022-12-07T07:35:20;100362.98;;;-0.32;100.00
45872;BME280;32333;55.844;-3.210;2022-12-07T07:37:51;100363.04;;;-0.76;100.00
45872;BME280;32333;55.844;-3.210;2022-12-07T07:44:38;100350.03;;;-0.72;100.00
45872;BME280;32333;55.844;-3.210;2022-12-07T07:47:08;100338.51;;;0.04;100.00
45872;BME280;32333;55.844;-3.210;2022-12-07T07:49:38;100333.46;;;0.01;100.00
45872;BME280;32333;55.844;-3.210;2022-12-07T07:52:24;100330.94;;;0.33;100.00
45872;BME280;32333;55.844;-3.210;2022-12-07T07:55:07;100331.57;;;-0.71;100.00
45872;BME280;32333;55.844;-3.210;2022-12-07T08:17:14;100318.51;;;-0.29;100.00
45872;BME280;32333;55.844;-3.210;2022-12-07T08:19:44;100323.99;;;-0.83;100.00
45872;BME280;32333;55.844;-3.210;2022-12-07T08:22:13;100322.47;;;0.07;100.00
45872;BME280;32333;55.844;-3.210;2022-12-07T08:24:44;100321.68;;;0.22;100.00
45872;BME280;32333;55.844;-3.210;2022-12-07T08:27:14;100322.56;;;0.28;100.00
45872;BME280;32333;55.844;-3.210;2022-12-07T08:29:43;100319.79;;;0.63;100.00
45872;BME280;32333;55.844;-3.210;2022-12-07T08:32:14;100319.60;;;0.77;100.00
45872;BME280;32333;55.844;-3.210;2022-12-07T08:34:43;100320.19;;;0.85;100.00
45872;BME280;32333;55.844;-3.210;2022-12-07T08:37:13;100323.19;;;0.33;100.00
45872;BME280;32333;55.844;-3.210;2022-12-07T08:39:43;100325.75;;;0.16;100.00
45872;BME280;32333;55.844;-3.210;2022-12-07T08:44:47;100319.48;;;-0.51;100.00
45872;BME280;32333;55.844;-3.210;2022-12-07T08:47:16;100320.77;;;-0.16;100.00
45872;BME280;32333;55.844;-3.210;2022-12-07T08:49:51;100316.96;;;-0.31;100.00
45872;BME280;32333;55.844;-3.210;2022-12-07T08:52:39;100317.26;;;-0.99;100.00
45872;BME280;32333;55.844;-3.210;2022-12-07T08:55:12;100316.97;;;-0.63;100.00
45872;BME280;32333;55.844;-3.210;2022-12-07T08:57:42;100318.43;;;-0.12;100.00
45872;BME280;32333;55.844;-3.210;2022-12-07T09:00:17;100320.37;;;-0.91;100.00
45872;BME280;32333;55.844;-3.210;2022-12-07T09:02:53;100322.91;;;-0.66;100.00
45872;BME280;32333;55.844;-3.210;2022-12-07T09:05:23;100327.38;;;-1.24;100.00
45872;BME280;32333;55.844;-3.210;2022-12-07T09:18:22;100313.52;;;0.26;100.00
45872;BME280;32333;55.844;-3.210;2022-12-07T09:20:55;100310.64;;;0.11;100.00
45872;BME280;32333;55.844;-3.210;2022-12-07T09:23:25;100311.07;;;0.52;100.00
45872;BME280;32333;55.844;-3.210;2022-12-07T09:25:54;100307.76;;;1.30;100.00
45872;BME280;32333;55.844;-3.210;2022-12-07T09:28:22;100300.10;;;1.67;100.00
45872;BME280;32333;55.844;-3.210;2022-12-07T09:30:50;100295.74;;;0.93;100.00
45872;BME280;32333;55.844;-3.210;2022-12-07T09:33:19;100294.17;;;2.14;100.00
45872;BME280;32333;55.844;-3.210;2022-12-07T09:35:53;100285.57;;;0.50;100.00
45872;BME280;32333;55.844;-3.210;2022-12-07T09:38:22;100274.74;;;3.45;100.00
45872;BME280;32333;55.844;-3.210;2022-12-07T09:40:51;100270.39;;;1.71;100.00
45872;BME280;32333;55.844;-3.210;2022-12-07T09:44:39;100270.56;;;1.79;100.00
45872;BME280;32333;55.844;-3.210;2022-12-07T09:47:10;100272.07;;;2.62;100.00
45872;BME280;32333;55.844;-3.210;2022-12-07T09:49:40;100269.98;;;1.63;100.00
45872;BME280;32333;55.844;-3.210;2022-12-07T09:52:24;100259.73;;;1.40;100.00
45872;BME280;32333;55.844;-3.210;2022-12-07T09:54:56;100262.37;;;0.81;100.00
45872;BME280;32333;55.844;-3.210;2022-12-07T10:00:33;100271.26;;;0.69;100.00
45872;BME280;32333;55.844;-3.210;2022-12-07T11:56:19;100160.28;;;0.65;100.00
45872;BME280;32333;55.844;-3.210;2022-12-07T12:00:43;100158.02;;;0.79;100.00
45872;BME280;32333;55.844;-3.210;2022-12-07T12:03:20;100141.56;;;0.44;100.00
45872;BME280;32333;55.844;-3.210;2022-12-07T12:39:21;100101.09;;;0.61;100.00
45872;BME280;32333;55.844;-3.210;2022-12-07T12:42:00;100103.63;;;1.67;100.00
45872;BME280;32333;55.844;-3.210;2022-12-07T13:52:44;100032.11;;;1.15;100.00
45872;BME280;32333;55.844;-3.210;2022-12-07T13:57:00;100018.84;;;2.06;100.00
45872;BME280;32333;55.844;-3.210;2022-12-07T13:59:42;100019.07;;;0.79;100.00
45872;BME280;32333;55.844;-3.210;2022-12-07T14:02:59;100008.82;;;2.86;100.00
45872;BME280;32333;55.844;-3.210;2022-12-07T14:05:47;100008.54;;;1.95;100.00
45872;BME280;32333;55.844;-3.210;2022-12-07T14:15:49;99993.23;;;3.29;100.00
45872;BME280;32333;55.844;-3.210;2022-12-07T14:44:36;99950.81;;;1.71;100.00
45872;BME280;32333;55.844;-3.210;2022-12-07T14:47:04;99957.89;;;0.30;100.00
45872;BME280;32333;55.844;-3.210;2022-12-07T14:49:36;99957.61;;;0.56;100.00
45872;BME280;32333;55.844;-3.210;2022-12-07T14:52:18;99952.14;;;1.29;100.00
45872;BME280;32333;55.844;-3.210;2022-12-07T14:54:48;99945.85;;;0.90;100.00
45872;BME280;32333;55.844;-3.210;2022-12-07T14:57:23;99944.18;;;1.47;100.00
45872;BME280;32333;55.844;-3.210;2022-12-07T15:14:38;99934.06;;;0.42;100.00
45872;BME280;32333;55.844;-3.210;2022-12-07T15:19:01;99931.87;;;0.09;100.00
45872;BME280;32333;55.844;-3.210;2022-12-07T15:21:33;99926.97;;;0.52;100.00
45872;BME280;32333;55.844;-3.210;2022-12-07T15:24:01;99920.16;;;0.77;100.00
45872;BME280;32333;55.844;-3.210;2022-12-07T15:44:37;99869.44;;;-0.23;100.00
45872;BME280;32333;55.844;-3.210;2022-12-07T16:05:32;99859.96;;;1.00;100.00
45872;BME280;32333;55.844;-3.210;2022-12-07T16:08:00;99864.65;;;0.47;100.00
45872;BME280;32333;55.844;-3.210;2022-12-07T16:10:38;99853.48;;;-0.04;100.00
45872;BME280;32333;55.844;-3.210;2022-12-07T16:14:39;99842.93;;;0.67;100.00
45872;BME280;32333;55.844;-3.210;2022-12-07T16:17:10;99837.79;;;2.10;100.00
45872;BME280;32333;55.844;-3.210;2022-12-07T16:19:40;99833.41;;;1.29;100.00
45872;BME280;32333;55.844;-3.210;2022-12-07T16:22:09;99829.50;;;1.37;100.00
45872;BME280;32333;55.844;-3.210;2022-12-07T16:24:38;99823.95;;;0.89;100.00
45872;BME280;32333;55.844;-3.210;2022-12-07T16:27:49;99815.11;;;1.26;100.00
45872;BME280;32333;55.844;-3.210;2022-12-07T16:30:22;99806.99;;;1.27;100.00
45872;BME280;32333;55.844;-3.210;2022-12-07T16:34:16;99809.13;;;0.20;100.00
45872;BME280;32333;55.844;-3.210;2022-12-07T16:38:32;99819.47;;;-0.29;100.00
45872;BME280;32333;55.844;-3.210;2022-12-07T16:41:03;99812.17;;;0.73;100.00
45872;BME280;32333;55.844;-3.210;2022-12-07T16:44:47;99813.69;;;1.55;100.00
45872;BME280;32333;55.844;-3.210;2022-12-07T16:47:28;99809.04;;;2.02;100.00
45872;BME280;32333;55.844;-3.210;2022-12-07T16:50:15;99809.27;;;0.88;100.00
45872;BME280;32333;55.844;-3.210;2022-12-07T16:52:45;99808.40;;;1.22;100.00
45872;BME280;32333;55.844;-3.210;2022-12-07T16:55:21;99805.44;;;0.77;100.00
45872;BME280;32333;55.844;-3.210;2022-12-07T16:57:50;99803.67;;;0.10;100.00
45872;BME280;32333;55.844;-3.210;2022-12-07T17:00:20;99803.64;;;1.95;100.00
45872;BME280;32333;55.844;-3.210;2022-12-07T17:14:37;99796.75;;;0.41;100.00
45872;BME280;32333;55.844;-3.210;2022-12-07T17:17:07;99794.74;;;0.07;100.00
45872;BME280;32333;55.844;-3.210;2022-12-07T17:19:35;99792.37;;;0.14;100.00
45872;BME280;32333;55.844;-3.210;2022-12-07T17:22:05;99788.67;;;0.51;100.00
45872;BME280;32333;55.844;-3.210;2022-12-07T17:24:43;99784.41;;;0.24;100.00
45872;BME280;32333;55.844;-3.210;2022-12-07T17:27:12;99780.85;;;0.97;100.00
45872;BME280;32333;55.844;-3.210;2022-12-07T17:29:43;99782.51;;;0.08;100.00
45872;BME280;32333;55.844;-3.210;2022-12-07T17:32:15;99782.53;;;0.78;100.00
45872;BME280;32333;55.844;-3.210;2022-12-07T17:35:09;99780.32;;;0.55;100.00
45872;BME280;32333;55.844;-3.210;2022-12-07T17:44:37;99766.60;;;0.67;100.00
45872;BME280;32333;55.844;-3.210;2022-12-07T17:51:04;99763.87;;;1.43;100.00
45872;BME280;32333;55.844;-3.210;2022-12-07T17:53:32;99761.81;;;0.97;100.00
45872;BME280;32333;55.844;-3.210;2022-12-07T17:56:02;99758.02;;;1.24;100.00
45872;BME280;32333;55.844;-3.210;2022-12-07T17:58:37;99756.59;;;0.25;100.00
45872;BME280;32333;55.844;-3.210;2022-12-07T18:01:09;99758.08;;;-0.68;100.00
45872;BME280;32333;55.844;-3.210;2022-12-07T18:03:39;99750.91;;;0.45;100.00
45872;BME280;32333;55.844;-3.210;2022-12-07T18:06:11;99744.36;;;0.04;100.00
45872;BME280;32333;55.844;-3.210;2022-12-07T18:08:55;99740.84;;;0.79;100.00
45872;BME280;32333;55.844;-3.210;2022-12-07T18:11:32;99738.56;;;0.46;100.00
45872;BME280;32333;55.844;-3.210;2022-12-07T18:14:39;99738.17;;;0.51;100.00
45872;BME280;32333;55.844;-3.210;2022-12-07T18:17:12;99738.30;;;1.30;100.00
45872;BME280;32333;55.844;-3.210;2022-12-07T18:19:42;99738.61;;;0.81;100.00
45872;BME280;32333;55.844;-3.210;2022-12-07T18:22:10;99733.29;;;-0.31;100.00
45872;BME280;32333;55.844;-3.210;2022-12-07T18:24:40;99727.69;;;-0.08;100.00
45872;BME280;32333;55.844;-3.210;2022-12-07T18:27:20;99728.35;;;-0.21;100.00
45872;BME280;32333;55.844;-3.210;2022-12-07T18:29:49;99726.73;;;0.56;100.00
45872;BME280;32333;55.844;-3.210;2022-12-07T18:32:17;99724.06;;;-0.15;100.00
45872;BME280;32333;55.844;-3.210;2022-12-07T18:34:45;99722.77;;;-0.12;100.00
45872;BME280;32333;55.844;-3.210;2022-12-07T18:44:38;99707.87;;;0.76;100.00
45872;BME280;32333;55.844;-3.210;2022-12-07T18:47:12;99710.67;;;0.33;100.00
45872;BME280;32333;55.844;-3.210;2022-12-07T18:50:00;99705.47;;;-0.04;100.00
45872;BME280;32333;55.844;-3.210;2022-12-07T18:52:31;99701.68;;;0.07;100.00
45872;BME280;32333;55.844;-3.210;2022-12-07T18:56:09;99696.52;;;0.75;100.00
45872;BME280;32333;55.844;-3.210;2022-12-07T18:58:43;99691.80;;;0.26;100.00
45872;BME280;32333;55.844;-3.210;2022-12-07T19:04:35;99694.41;;;1.12;100.00
45872;BME280;32333;55.844;-3.210;2022-12-07T19:14:51;99682.60;;;0.24;100.00
45872;BME280;32333;55.844;-3.210;2022-12-07T19:17:21;99677.89;;;-0.92;100.00
45872;BME280;32333;55.844;-3.210;2022-12-07T19:19:52;99676.10;;;-0.08;100.00
45872;BME280;32333;55.844;-3.210;2022-12-07T19:22:40;99672.61;;;0.37;100.00
45872;BME280;32333;55.844;-3.210;2022-12-07T19:25:23;99669.18;;;-0.24;100.00
45872;BME280;32333;55.844;-3.210;2022-12-07T19:27:51;99671.12;;;-0.42;100.00
45872;BME280;32333;55.844;-3.210;2022-12-07T19:30:28;99666.78;;;0.52;100.00
45872;BME280;32333;55.844;-3.210;2022-12-07T19:34:18;99661.60;;;0.21;100.00
45872;BME280;32333;55.844;-3.210;2022-12-07T19:36:48;99662.71;;;-0.00;100.00
45872;BME280;32333;55.844;-3.210;2022-12-07T19:39:38;99668.21;;;-1.53;100.00
45872;BME280;32333;55.844;-3.210;2022-12-07T19:46:50;99664.12;;;0.37;100.00
45872;BME280;32333;55.844;-3.210;2022-12-07T19:50:09;99666.32;;;-0.44;100.00
45872;BME280;32333;55.844;-3.210;2022-12-07T19:53:32;99662.77;;;-0.56;100.00
45872;BME280;32333;55.844;-3.210;2022-12-07T19:56:15;99672.80;;;-1.32;100.00
45872;BME280;32333;55.844;-3.210;2022-12-07T20:07:07;99656.52;;;-0.31;100.00
45872;BME280;32333;55.844;-3.210;2022-12-07T20:10:43;99660.66;;;-0.70;100.00
45872;BME280;32333;55.844;-3.210;2022-12-07T20:14:37;99659.45;;;0.15;100.00
45872;BME280;32333;55.844;-3.210;2022-12-07T20:17:06;99662.65;;;-0.72;100.00
45872;BME280;32333;55.844;-3.210;2022-12-07T20:19:37;99660.39;;;-0.61;100.00
45872;BME280;32333;55.844;-3.210;2022-12-07T20:22:06;99655.23;;;-0.21;100.00
45872;BME280;32333;55.844;-3.210;2022-12-07T20:32:16;99643.84;;;0.12;100.00
45872;BME280;32333;55.844;-3.210;2022-12-07T20:34:48;99646.21;;;-1.48;100.00
45872;BME280;32333;55.844;-3.210;2022-12-07T20:37:19;99633.99;;;-0.45;100.00
45872;BME280;32333;55.844;-3.210;2022-12-07T20:39:47;99633.01;;;-0.95;100.00
45872;BME280;32333;55.844;-3.210;2022-12-07T20:44:38;99631.74;;;0.17;100.00
45872;BME280;32333;55.844;-3.210;2022-12-07T20:47:07;99633.43;;;-0.12;100.00
45872;BME280;32333;55.844;-3.210;2022-12-07T20:49:39;99624.38;;;-0.10;100.00
45872;BME280;32333;55.844;-3.210;2022-12-07T20:52:07;99627.52;;;0.71;100.00
45872;BME280;32333;55.844;-3.210;2022-12-07T20:54:35;99622.35;;;0.73;100.00
45872;BME280;32333;55.844;-3.210;2022-12-07T20:57:03;99625.56;;;0.29;100.00
45872;BME280;32333;55.844;-3.210;2022-12-07T20:59:31;99619.70;;;1.32;100.00
45872;BME280;32333;55.844;-3.210;2022-12-07T21:01:59;99617.36;;;0.63;100.00
45872;BME280;32333;55.844;-3.210;2022-12-07T21:04:27;99615.97;;;0.56;100.00
45872;BME280;32333;55.844;-3.210;2022-12-07T21:06:55;99615.98;;;1.23;100.00
45872;BME280;32333;55.844;-3.210;2022-12-07T21:09:23;99613.17;;;1.11;100.00
45872;BME280;32333;55.844;-3.210;2022-12-07T21:11:52;99611.81;;;0.61;100.00
45872;BME280;32333;55.844;-3.210;2022-12-07T21:14:39;99612.83;;;0.41;100.00
45872;BME280;32333;55.844;-3.210;2022-12-07T21:17:18;99610.42;;;0.56;100.00
45872;BME280;32333;55.844;-3.210;2022-12-07T21:19:48;99603.93;;;1.96;100.00
45872;BME280;32333;55.844;-3.210;2022-12-07T21:29:57;99618.69;;;0.41;100.00
45872;BME280;32333;55.844;-3.210;2022-12-07T21:32:26;99619.72;;;-0.74;100.00
45872;BME280;32333;55.844;-3.210;2022-12-07T21:34:55;99619.07;;;0.50;100.00
45872;BME280;32333;55.844;-3.210;2022-12-07T21:37:22;99616.62;;;-0.03;100.00
45872;BME280;32333;55.844;-3.210;2022-12-07T21:39:52;99612.98;;;0.20;100.00
45872;BME280;32333;55.844;-3.210;2022-12-07T21:44:37;99607.83;;;1.31;100.00
45872;BME280;32333;55.844;-3.210;2022-12-07T21:47:09;99605.89;;;1.44;100.00
45872;BME280;32333;55.844;-3.210;2022-12-07T21:49:40;99605.56;;;1.07;100.00
45872;BME280;32333;55.844;-3.210;2022-12-07T21:52:10;99607.82;;;0.57;100.00
45872;BME280;32333;55.844;-3.210;2022-12-07T21:54:40;99607.93;;;0.60;100.00
45872;BME280;32333;55.844;-3.210;2022-12-07T21:57:08;99600.43;;;1.13;100.00
45872;BME280;32333;55.844;-3.210;2022-12-07T21:59:45;99602.35;;;1.75;100.00
45872;BME280;32333;55.844;-3.210;2022-12-07T22:02:13;99595.69;;;0.70;100.00
45872;BME280;32333;55.844;-3.210;2022-12-07T22:04:43;99599.11;;;1.06;100.00
45872;BME280;32333;55.844;-3.210;2022-12-07T22:07:12;99600.71;;;0.68;100.00
45872;BME280;32333;55.844;-3.210;2022-12-07T22:09:41;99596.34;;;1.17;100.00
45872;BME280;32333;55.844;-3.210;2022-12-07T22:44:42;99604.59;;;-0.57;100.00
45872;BME280;32333;55.844;-3.210;2022-12-07T22:47:13;99601.19;;;-0.22;100.00
45872;BME280;32333;55.844;-3.210;2022-12-07T22:49:41;99604.67;;;0.46;100.00
45872;BME280;32333;55.844;-3.210;2022-12-07T22:52:09;99604.86;;;1.36;100.00
45872;BME280;32333;55.844;-3.210;2022-12-07T22:54:39;99602.15;;;1.06;100.00
45872;BME280;32333;55.844;-3.210;2022-12-07T22:58:03;99606.14;;;0.89;100.00
45872;BME280;32333;55.844;-3.210;2022-12-07T23:03:03;99602.84;;;0.89;100.00
45872;BME280;32333;55.844;-3.210;2022-12-07T23:05:32;99598.58;;;0.76;100.00
45872;BME280;32333;55.844;-3.210;2022-12-07T23:08:04;99597.63;;;0.38;100.00
45872;BME280;32333;55.844;-3.210;2022-12-07T23:10:32;99591.29;;;0.41;100.00
45872;BME280;32333;55.844;-3.210;2022-12-07T23:14:36;99587.24;;;2.32;100.00
45872;BME280;32333;55.844;-3.210;2022-12-07T23:17:04;99586.34;;;2.11;100.00
45872;BME280;32333;55.844;-3.210;2022-12-07T23:19:33;99586.38;;;2.85;100.00
45872;BME280;32333;55.844;-3.210;2022-12-07T23:22:01;99578.91;;;0.41;100.00
45872;BME280;32333;55.844;-3.210;2022-12-07T23:24:36;99570.72;;;0.98;100.00
45872;BME280;32333;55.844;-3.210;2022-12-07T23:27:53;99570.02;;;2.35;100.00
45872;BME280;32333;55.844;-3.210;2022-12-07T23:31:48;99568.88;;;2.53;100.00
45872;BME280;32333;55.844;-3.210;2022-12-07T23:34:16;99566.47;;;2.46;100.00
45872;BME280;32333;55.844;-3.210;2022-12-07T23:36:44;99561.09;;;2.77;100.00
45872;BME280;32333;55.844;-3.210;2022-12-07T23:39:12;99555.38;;;2.82;100.00
45872;BME280;32333;55.844;-3.210;2022-12-07T23:41:41;99558.94;;;2.80;100.00
45872;BME280;32333;55.844;-3.210;2022-12-07T23:44:39;99554.09;;;3.06;100.00
45872;BME280;32333;55.844;-3.210;2022-12-07T23:47:23;99551.98;;;3.85;100.00
45872;BME280;32333;55.844;-3.210;2022-12-07T23:49:58;99547.74;;;3.23;100.00
45872;BME280;32333;55.844;-3.210;2022-12-07T23:52:26;99549.15;;;2.83;100.00
45872;BME280;32333;55.844;-3.210;2022-12-07T23:55:04;99553.50;;;2.15;100.00
45872;BME280;32333;55.844;-3.210;2022-12-07T23:57:37;99552.06;;;1.95;100.00
